sensor_id;sensor_type;location;lat;lon;timestamp;temperature;humidity
80212;DHT22;70434;37.956;23.722;2023-07-13T00:01:51;32.40;29.10
80212;DHT22;70434;37.956;23.722;2023-07-13T00:04:21;32.50;29.10
80212;DHT22;70434;37.956;23.722;2023-07-13T00:06:48;32.40;29.00
80212;DHT22;70434;37.956;23.722;2023-07-13T00:09:16;32.40;29.10
80212;DHT22;70434;37.956;23.722;2023-07-13T00:11:44;32.40;29.10
80212;DHT22;70434;37.956;23.722;2023-07-13T00:14:10;32.40;29.10
80212;DHT22;70434;37.956;23.722;2023-07-13T00:16:38;32.40;29.10
80212;DHT22;70434;37.956;23.722;2023-07-13T00:19:06;32.40;29.10
80212;DHT22;70434;37.956;23.722;2023-07-13T00:21:32;32.40;29.00
80212;DHT22;70434;37.956;23.722;2023-07-13T00:23:58;32.40;29.10
80212;DHT22;70434;37.956;23.722;2023-07-13T00:26:25;32.40;29.20
80212;DHT22;70434;37.956;23.722;2023-07-13T00:28:50;32.30;29.30
80212;DHT22;70434;37.956;23.722;2023-07-13T00:31:17;32.30;29.30
80212;DHT22;70434;37.956;23.722;2023-07-13T00:33:43;32.30;29.20
80212;DHT22;70434;37.956;23.722;2023-07-13T00:36:09;32.30;29.20
80212;DHT22;70434;37.956;23.722;2023-07-13T00:38:36;32.20;29.20
80212;DHT22;70434;37.956;23.722;2023-07-13T00:41:03;32.20;29.20
80212;DHT22;70434;37.956;23.722;2023-07-13T00:43:29;32.30;29.20
80212;DHT22;70434;37.956;23.722;2023-07-13T00:48:33;32.30;29.50
80212;DHT22;70434;37.956;23.722;2023-07-13T00:51:00;32.30;29.60
80212;DHT22;70434;37.956;23.722;2023-07-13T00:53:29;32.30;29.70
80212;DHT22;70434;37.956;23.722;2023-07-13T00:55:57;32.30;29.70
80212;DHT22;70434;37.956;23.722;2023-07-13T00:58:25;32.20;29.80
80212;DHT22;70434;37.956;23.722;2023-07-13T01:00:51;32.20;29.80
80212;DHT22;70434;37.956;23.722;2023-07-13T01:03:18;32.20;29.90
80212;DHT22;70434;37.956;23.722;2023-07-13T01:05:48;32.20;30.00
80212;DHT22;70434;37.956;23.722;2023-07-13T01:08:15;32.20;30.00
80212;DHT22;70434;37.956;23.722;2023-07-13T01:10:50;32.10;30.00
80212;DHT22;70434;37.956;23.722;2023-07-13T01:13:15;32.10;30.00
80212;DHT22;70434;37.956;23.722;2023-07-13T01:15:46;32.00;29.70
80212;DHT22;70434;37.956;23.722;2023-07-13T01:18:22;32.10;29.80
80212;DHT22;70434;37.956;23.722;2023-07-13T01:21:01;32.00;29.60
80212;DHT22;70434;37.956;23.722;2023-07-13T01:23:28;32.00;29.60
80212;DHT22;70434;37.956;23.722;2023-07-13T01:25:54;31.90;29.40
80212;DHT22;70434;37.956;23.722;2023-07-13T01:28:21;31.90;30.20
80212;DHT22;70434;37.956;23.722;2023-07-13T01:30:47;31.90;29.60
80212;DHT22;70434;37.956;23.722;2023-07-13T01:33:16;31.90;29.70
80212;DHT22;70434;37.956;23.722;2023-07-13T01:35:42;31.90;29.60
80212;DHT22;70434;37.956;23.722;2023-07-13T01:38:09;31.90;29.60
80212;DHT22;70434;37.956;23.722;2023-07-13T01:40:36;31.90;29.60
80212;DHT22;70434;37.956;23.722;2023-07-13T01:43:03;31.70;29.70
80212;DHT22;70434;37.956;23.722;2023-07-13T01:45:32;31.70;29.80
80212;DHT22;70434;37.956;23.722;2023-07-13T01:47:58;31.60;29.80
80212;DHT22;70434;37.956;23.722;2023-07-13T01:50:24;31.60;29.70
80212;DHT22;70434;37.956;23.722;2023-07-13T01:52:50;31.60;29.60
80212;DHT22;70434;37.956;23.722;2023-07-13T01:55:16;31.70;29.60
80212;DHT22;70434;37.956;23.722;2023-07-13T01:57:42;31.70;29.40
80212;DHT22;70434;37.956;23.722;2023-07-13T02:00:10;31.70;29.50
80212;DHT22;70434;37.956;23.722;2023-07-13T02:02:36;31.70;29.40
80212;DHT22;70434;37.956;23.722;2023-07-13T02:05:02;31.70;29.50
80212;DHT22;70434;37.956;23.722;2023-07-13T02:07:28;31.70;29.40
80212;DHT22;70434;37.956;23.722;2023-07-13T02:09:56;31.70;29.50
80212;DHT22;70434;37.956;23.722;2023-07-13T02:12:21;31.70;29.50
80212;DHT22;70434;37.956;23.722;2023-07-13T02:14:47;31.70;29.40
80212;DHT22;70434;37.956;23.722;2023-07-13T02:17:13;31.70;29.40
80212;DHT22;70434;37.956;23.722;2023-07-13T02:19:39;31.70;29.50
80212;DHT22;70434;37.956;23.722;2023-07-13T02:22:06;31.70;29.50
80212;DHT22;70434;37.956;23.722;2023-07-13T02:24:32;31.70;29.80
80212;DHT22;70434;37.956;23.722;2023-07-13T02:26:57;31.70;29.90
80212;DHT22;70434;37.956;23.722;2023-07-13T02:29:23;31.70;30.00
80212;DHT22;70434;37.956;23.722;2023-07-13T02:31:49;31.70;30.00
80212;DHT22;70434;37.956;23.722;2023-07-13T02:34:14;31.70;30.10
80212;DHT22;70434;37.956;23.722;2023-07-13T02:36:40;31.70;30.00
80212;DHT22;70434;37.956;23.722;2023-07-13T02:39:06;31.70;30.00
80212;DHT22;70434;37.956;23.722;2023-07-13T02:41:32;31.70;30.00
80212;DHT22;70434;37.956;23.722;2023-07-13T02:44:02;31.60;30.10
80212;DHT22;70434;37.956;23.722;2023-07-13T02:46:33;31.60;30.20
80212;DHT22;70434;37.956;23.722;2023-07-13T02:49:00;31.60;30.40
80212;DHT22;70434;37.956;23.722;2023-07-13T02:51:26;31.60;30.20
80212;DHT22;70434;37.956;23.722;2023-07-13T02:53:52;31.60;30.20
80212;DHT22;70434;37.956;23.722;2023-07-13T02:56:22;31.60;30.20
80212;DHT22;70434;37.956;23.722;2023-07-13T02:58:48;31.50;30.00
80212;DHT22;70434;37.956;23.722;2023-07-13T03:01:13;31.50;30.00
80212;DHT22;70434;37.956;23.722;2023-07-13T03:03:47;31.50;29.90
80212;DHT22;70434;37.956;23.722;2023-07-13T03:06:14;31.50;30.00
80212;DHT22;70434;37.956;23.722;2023-07-13T03:08:40;31.50;30.00
80212;DHT22;70434;37.956;23.722;2023-07-13T03:11:12;31.50;30.00
80212;DHT22;70434;37.956;23.722;2023-07-13T03:13:40;31.50;30.00
80212;DHT22;70434;37.956;23.722;2023-07-13T03:16:07;31.40;30.10
80212;DHT22;70434;37.956;23.722;2023-07-13T03:18:33;31.40;30.10
80212;DHT22;70434;37.956;23.722;2023-07-13T03:20:59;31.40;30.10
80212;DHT22;70434;37.956;23.722;2023-07-13T03:23:25;31.40;31.30
80212;DHT22;70434;37.956;23.722;2023-07-13T03:26:11;31.40;30.20
80212;DHT22;70434;37.956;23.722;2023-07-13T03:28:39;31.30;30.30
80212;DHT22;70434;37.956;23.722;2023-07-13T03:31:14;31.30;30.40
80212;DHT22;70434;37.956;23.722;2023-07-13T03:33:41;31.30;30.50
80212;DHT22;70434;37.956;23.722;2023-07-13T03:36:09;31.30;30.60
80212;DHT22;70434;37.956;23.722;2023-07-13T03:38:37;31.30;30.60
80212;DHT22;70434;37.956;23.722;2023-07-13T03:41:03;31.20;30.80
80212;DHT22;70434;37.956;23.722;2023-07-13T03:43:29;31.20;31.00
80212;DHT22;70434;37.956;23.722;2023-07-13T03:45:58;31.10;31.00
80212;DHT22;70434;37.956;23.722;2023-07-13T03:48:23;31.10;31.40
80212;DHT22;70434;37.956;23.722;2023-07-13T03:50:51;31.00;31.50
80212;DHT22;70434;37.956;23.722;2023-07-13T03:53:16;31.00;31.60
80212;DHT22;70434;37.956;23.722;2023-07-13T03:55:44;31.00;31.90
80212;DHT22;70434;37.956;23.722;2023-07-13T03:58:30;31.10;32.00
80212;DHT22;70434;37.956;23.722;2023-07-13T04:00:56;31.10;32.10
80212;DHT22;70434;37.956;23.722;2023-07-13T04:03:23;31.10;32.00
80212;DHT22;70434;37.956;23.722;2023-07-13T04:05:49;31.20;32.10
80212;DHT22;70434;37.956;23.722;2023-07-13T04:08:15;31.20;31.80
80212;DHT22;70434;37.956;23.722;2023-07-13T04:10:41;31.30;31.40
80212;DHT22;70434;37.956;23.722;2023-07-13T04:13:07;31.30;31.70
80212;DHT22;70434;37.956;23.722;2023-07-13T04:15:33;31.30;31.80
80212;DHT22;70434;37.956;23.722;2023-07-13T04:17:58;31.30;32.00
80212;DHT22;70434;37.956;23.722;2023-07-13T04:20:25;31.30;32.10
80212;DHT22;70434;37.956;23.722;2023-07-13T04:22:52;31.30;31.90
80212;DHT22;70434;37.956;23.722;2023-07-13T04:25:19;31.20;31.50
80212;DHT22;70434;37.956;23.722;2023-07-13T04:27:45;31.20;31.20
80212;DHT22;70434;37.956;23.722;2023-07-13T04:30:10;31.10;31.20
80212;DHT22;70434;37.956;23.722;2023-07-13T04:32:36;31.20;31.30
80212;DHT22;70434;37.956;23.722;2023-07-13T04:35:02;31.20;31.00
80212;DHT22;70434;37.956;23.722;2023-07-13T04:37:28;31.20;31.10
80212;DHT22;70434;37.956;23.722;2023-07-13T04:39:54;31.30;31.10
80212;DHT22;70434;37.956;23.722;2023-07-13T04:42:20;31.30;31.00
80212;DHT22;70434;37.956;23.722;2023-07-13T04:44:50;31.30;31.00
80212;DHT22;70434;37.956;23.722;2023-07-13T04:47:16;31.30;31.00
80212;DHT22;70434;37.956;23.722;2023-07-13T04:49:42;31.30;30.90
80212;DHT22;70434;37.956;23.722;2023-07-13T04:52:08;31.30;30.90
80212;DHT22;70434;37.956;23.722;2023-07-13T04:54:34;31.40;30.80
80212;DHT22;70434;37.956;23.722;2023-07-13T04:57:00;31.40;30.90
80212;DHT22;70434;37.956;23.722;2023-07-13T04:59:26;31.40;30.90
80212;DHT22;70434;37.956;23.722;2023-07-13T05:01:53;31.50;30.70
80212;DHT22;70434;37.956;23.722;2023-07-13T05:04:19;31.50;31.20
80212;DHT22;70434;37.956;23.722;2023-07-13T05:06:45;31.50;31.20
80212;DHT22;70434;37.956;23.722;2023-07-13T05:09:10;31.40;31.10
80212;DHT22;70434;37.956;23.722;2023-07-13T05:11:38;31.40;31.30
80212;DHT22;70434;37.956;23.722;2023-07-13T05:14:03;31.40;30.70
80212;DHT22;70434;37.956;23.722;2023-07-13T05:16:29;31.60;30.60
80212;DHT22;70434;37.956;23.722;2023-07-13T05:18:55;31.60;30.50
80212;DHT22;70434;37.956;23.722;2023-07-13T05:21:21;31.70;30.30
80212;DHT22;70434;37.956;23.722;2023-07-13T05:23:47;31.80;31.30
80212;DHT22;70434;37.956;23.722;2023-07-13T05:26:13;31.90;30.00
80212;DHT22;70434;37.956;23.722;2023-07-13T05:28:39;31.90;30.20
80212;DHT22;70434;37.956;23.722;2023-07-13T05:31:06;31.90;30.10
80212;DHT22;70434;37.956;23.722;2023-07-13T05:33:32;31.90;30.20
80212;DHT22;70434;37.956;23.722;2023-07-13T05:35:58;31.90;30.20
80212;DHT22;70434;37.956;23.722;2023-07-13T05:38:26;31.90;30.10
80212;DHT22;70434;37.956;23.722;2023-07-13T05:40:54;32.00;29.90
80212;DHT22;70434;37.956;23.722;2023-07-13T05:43:21;32.00;30.00
80212;DHT22;70434;37.956;23.722;2023-07-13T05:45:47;32.10;29.90
80212;DHT22;70434;37.956;23.722;2023-07-13T05:48:13;32.20;29.90
80212;DHT22;70434;37.956;23.722;2023-07-13T05:50:38;32.20;29.40
80212;DHT22;70434;37.956;23.722;2023-07-13T05:53:04;32.30;29.40
80212;DHT22;70434;37.956;23.722;2023-07-13T05:55:30;32.30;29.00
80212;DHT22;70434;37.956;23.722;2023-07-13T05:57:56;32.30;29.00
80212;DHT22;70434;37.956;23.722;2023-07-13T06:00:24;32.40;29.00
80212;DHT22;70434;37.956;23.722;2023-07-13T06:02:50;32.40;29.10
80212;DHT22;70434;37.956;23.722;2023-07-13T06:05:15;32.50;28.90
80212;DHT22;70434;37.956;23.722;2023-07-13T06:07:42;32.50;28.70
80212;DHT22;70434;37.956;23.722;2023-07-13T06:10:08;32.50;29.10
80212;DHT22;70434;37.956;23.722;2023-07-13T06:12:34;32.50;29.20
80212;DHT22;70434;37.956;23.722;2023-07-13T06:15:00;32.60;29.10
80212;DHT22;70434;37.956;23.722;2023-07-13T06:17:25;32.60;29.30
80212;DHT22;70434;37.956;23.722;2023-07-13T06:19:51;32.70;29.60
80212;DHT22;70434;37.956;23.722;2023-07-13T06:22:17;32.70;29.50
80212;DHT22;70434;37.956;23.722;2023-07-13T06:24:42;32.70;29.50
80212;DHT22;70434;37.956;23.722;2023-07-13T06:27:08;32.80;29.50
80212;DHT22;70434;37.956;23.722;2023-07-13T06:29:34;32.70;29.20
80212;DHT22;70434;37.956;23.722;2023-07-13T06:32:00;32.60;29.10
80212;DHT22;70434;37.956;23.722;2023-07-13T06:34:26;32.70;29.10
80212;DHT22;70434;37.956;23.722;2023-07-13T06:36:51;32.80;29.10
80212;DHT22;70434;37.956;23.722;2023-07-13T06:39:17;32.90;29.30
80212;DHT22;70434;37.956;23.722;2023-07-13T06:41:43;32.90;28.90
80212;DHT22;70434;37.956;23.722;2023-07-13T06:44:08;32.90;28.90
80212;DHT22;70434;37.956;23.722;2023-07-13T06:46:34;32.90;28.70
80212;DHT22;70434;37.956;23.722;2023-07-13T06:49:00;33.00;28.60
80212;DHT22;70434;37.956;23.722;2023-07-13T06:51:26;33.10;28.30
80212;DHT22;70434;37.956;23.722;2023-07-13T06:53:52;33.20;28.10
80212;DHT22;70434;37.956;23.722;2023-07-13T06:56:18;33.20;28.10
80212;DHT22;70434;37.956;23.722;2023-07-13T06:58:43;33.20;28.20
80212;DHT22;70434;37.956;23.722;2023-07-13T07:01:09;33.20;29.10
80212;DHT22;70434;37.956;23.722;2023-07-13T07:03:35;33.20;28.60
80212;DHT22;70434;37.956;23.722;2023-07-13T07:06:16;33.20;28.90
80212;DHT22;70434;37.956;23.722;2023-07-13T07:08:43;33.30;28.80
80212;DHT22;70434;37.956;23.722;2023-07-13T07:11:19;33.30;28.90
80212;DHT22;70434;37.956;23.722;2023-07-13T07:13:45;33.40;29.00
80212;DHT22;70434;37.956;23.722;2023-07-13T07:16:11;33.40;29.10
80212;DHT22;70434;37.956;23.722;2023-07-13T07:18:37;33.50;29.20
80212;DHT22;70434;37.956;23.722;2023-07-13T07:21:03;33.50;29.00
80212;DHT22;70434;37.956;23.722;2023-07-13T07:23:28;33.60;28.30
80212;DHT22;70434;37.956;23.722;2023-07-13T07:25:54;33.60;28.40
80212;DHT22;70434;37.956;23.722;2023-07-13T07:28:20;33.60;28.50
80212;DHT22;70434;37.956;23.722;2023-07-13T07:30:46;33.70;29.10
80212;DHT22;70434;37.956;23.722;2023-07-13T07:33:13;33.70;28.00
80212;DHT22;70434;37.956;23.722;2023-07-13T07:35:39;33.70;28.30
80212;DHT22;70434;37.956;23.722;2023-07-13T07:38:05;33.70;28.20
80212;DHT22;70434;37.956;23.722;2023-07-13T07:40:35;33.90;28.40
80212;DHT22;70434;37.956;23.722;2023-07-13T07:43:02;33.90;28.20
80212;DHT22;70434;37.956;23.722;2023-07-13T07:45:28;33.90;28.50
80212;DHT22;70434;37.956;23.722;2023-07-13T07:47:56;33.90;28.30
80212;DHT22;70434;37.956;23.722;2023-07-13T07:50:27;34.00;28.20
80212;DHT22;70434;37.956;23.722;2023-07-13T07:52:54;34.10;28.20
80212;DHT22;70434;37.956;23.722;2023-07-13T07:55:21;34.10;28.20
80212;DHT22;70434;37.956;23.722;2023-07-13T07:57:48;34.20;28.00
80212;DHT22;70434;37.956;23.722;2023-07-13T08:00:14;34.30;27.70
80212;DHT22;70434;37.956;23.722;2023-07-13T08:02:40;34.30;28.00
80212;DHT22;70434;37.956;23.722;2023-07-13T08:05:07;34.40;28.30
80212;DHT22;70434;37.956;23.722;2023-07-13T08:07:34;34.40;28.20
80212;DHT22;70434;37.956;23.722;2023-07-13T08:09:59;34.40;28.50
80212;DHT22;70434;37.956;23.722;2023-07-13T08:12:25;34.30;28.60
80212;DHT22;70434;37.956;23.722;2023-07-13T08:14:51;34.40;28.90
80212;DHT22;70434;37.956;23.722;2023-07-13T08:17:23;34.50;29.20
80212;DHT22;70434;37.956;23.722;2023-07-13T08:19:50;34.50;29.00
80212;DHT22;70434;37.956;23.722;2023-07-13T08:22:16;34.50;29.10
80212;DHT22;70434;37.956;23.722;2023-07-13T08:24:42;34.60;29.20
80212;DHT22;70434;37.956;23.722;2023-07-13T08:27:08;34.60;29.00
80212;DHT22;70434;37.956;23.722;2023-07-13T08:29:34;34.70;29.10
80212;DHT22;70434;37.956;23.722;2023-07-13T08:32:00;34.70;29.10
80212;DHT22;70434;37.956;23.722;2023-07-13T08:34:26;34.70;29.40
80212;DHT22;70434;37.956;23.722;2023-07-13T08:36:51;34.80;29.40
80212;DHT22;70434;37.956;23.722;2023-07-13T08:39:17;34.80;29.20
80212;DHT22;70434;37.956;23.722;2023-07-13T08:41:46;34.90;29.10
80212;DHT22;70434;37.956;23.722;2023-07-13T08:47:10;34.80;28.90
80212;DHT22;70434;37.956;23.722;2023-07-13T08:49:38;34.90;28.60
80212;DHT22;70434;37.956;23.722;2023-07-13T08:52:35;34.90;28.40
80212;DHT22;70434;37.956;23.722;2023-07-13T08:55:24;35.00;28.40
80212;DHT22;70434;37.956;23.722;2023-07-13T08:58:10;35.10;29.20
80212;DHT22;70434;37.956;23.722;2023-07-13T09:00:52;35.10;28.60
80212;DHT22;70434;37.956;23.722;2023-07-13T09:03:27;35.20;28.90
80212;DHT22;70434;37.956;23.722;2023-07-13T09:05:56;35.20;29.00
80212;DHT22;70434;37.956;23.722;2023-07-13T09:13:51;35.30;28.30
80212;DHT22;70434;37.956;23.722;2023-07-13T09:16:22;35.30;28.10
80212;DHT22;70434;37.956;23.722;2023-07-13T09:18:50;35.30;28.50
80212;DHT22;70434;37.956;23.722;2023-07-13T09:21:25;35.30;28.50
80212;DHT22;70434;37.956;23.722;2023-07-13T09:23:54;35.40;28.20
80212;DHT22;70434;37.956;23.722;2023-07-13T09:26:23;35.40;27.90
80212;DHT22;70434;37.956;23.722;2023-07-13T09:28:53;35.40;27.80
80212;DHT22;70434;37.956;23.722;2023-07-13T09:31:34;35.50;27.80
80212;DHT22;70434;37.956;23.722;2023-07-13T09:34:04;35.50;27.60
80212;DHT22;70434;37.956;23.722;2023-07-13T09:36:33;35.60;27.90
80212;DHT22;70434;37.956;23.722;2023-07-13T09:41:47;35.70;28.00
80212;DHT22;70434;37.956;23.722;2023-07-13T09:44:18;35.70;27.80
80212;DHT22;70434;37.956;23.722;2023-07-13T09:46:55;35.80;27.30
80212;DHT22;70434;37.956;23.722;2023-07-13T09:49:38;35.80;27.70
80212;DHT22;70434;37.956;23.722;2023-07-13T09:52:06;35.80;28.10
80212;DHT22;70434;37.956;23.722;2023-07-13T09:54:36;35.90;28.10
80212;DHT22;70434;37.956;23.722;2023-07-13T09:57:11;35.90;28.60
80212;DHT22;70434;37.956;23.722;2023-07-13T09:59:43;35.90;27.90
80212;DHT22;70434;37.956;23.722;2023-07-13T10:02:36;36.00;27.40
80212;DHT22;70434;37.956;23.722;2023-07-13T10:05:11;36.00;27.40
80212;DHT22;70434;37.956;23.722;2023-07-13T10:07:43;36.10;27.70
80212;DHT22;70434;37.956;23.722;2023-07-13T10:10:21;36.10;28.00
80212;DHT22;70434;37.956;23.722;2023-07-13T10:12:49;36.10;28.10
80212;DHT22;70434;37.956;23.722;2023-07-13T10:15:26;36.10;28.00
80212;DHT22;70434;37.956;23.722;2023-07-13T10:17:54;36.00;28.00
80212;DHT22;70434;37.956;23.722;2023-07-13T10:20:24;36.10;27.30
80212;DHT22;70434;37.956;23.722;2023-07-13T10:23:02;36.10;26.80
80212;DHT22;70434;37.956;23.722;2023-07-13T10:25:33;36.10;26.90
80212;DHT22;70434;37.956;23.722;2023-07-13T10:30:46;36.00;26.50
80212;DHT22;70434;37.956;23.722;2023-07-13T10:33:13;36.10;26.20
80212;DHT22;70434;37.956;23.722;2023-07-13T10:35:43;36.20;25.70
80212;DHT22;70434;37.956;23.722;2023-07-13T10:38:15;36.30;25.80
80212;DHT22;70434;37.956;23.722;2023-07-13T10:43:43;36.10;25.40
80212;DHT22;70434;37.956;23.722;2023-07-13T10:46:13;36.10;25.80
80212;DHT22;70434;37.956;23.722;2023-07-13T10:48:41;36.10;25.60
80212;DHT22;70434;37.956;23.722;2023-07-13T10:51:09;36.20;25.80
80212;DHT22;70434;37.956;23.722;2023-07-13T10:53:37;36.20;26.00
80212;DHT22;70434;37.956;23.722;2023-07-13T10:58:41;36.30;25.30
80212;DHT22;70434;37.956;23.722;2023-07-13T11:01:16;36.50;24.90
80212;DHT22;70434;37.956;23.722;2023-07-13T11:06:41;36.60;24.70
80212;DHT22;70434;37.956;23.722;2023-07-13T11:09:38;36.60;25.00
80212;DHT22;70434;37.956;23.722;2023-07-13T11:17:53;36.90;25.20
80212;DHT22;70434;37.956;23.722;2023-07-13T11:20:35;37.00;25.00
80212;DHT22;70434;37.956;23.722;2023-07-13T11:25:39;37.10;24.30
80212;DHT22;70434;37.956;23.722;2023-07-13T11:35:59;37.40;24.40
80212;DHT22;70434;37.956;23.722;2023-07-13T11:38:41;37.60;23.80
80212;DHT22;70434;37.956;23.722;2023-07-13T11:41:17;37.70;23.30
80212;DHT22;70434;37.956;23.722;2023-07-13T11:43:44;37.80;23.50
80212;DHT22;70434;37.956;23.722;2023-07-13T11:46:24;37.70;23.70
80212;DHT22;70434;37.956;23.722;2023-07-13T11:48:51;37.70;23.50
80212;DHT22;70434;37.956;23.722;2023-07-13T11:51:22;37.70;23.60
80212;DHT22;70434;37.956;23.722;2023-07-13T11:53:51;37.80;23.70
80212;DHT22;70434;37.956;23.722;2023-07-13T11:56:17;37.90;23.40
80212;DHT22;70434;37.956;23.722;2023-07-13T11:58:44;38.00;22.90
80212;DHT22;70434;37.956;23.722;2023-07-13T12:01:20;38.20;22.90
80212;DHT22;70434;37.956;23.722;2023-07-13T12:03:48;38.10;22.60
80212;DHT22;70434;37.956;23.722;2023-07-13T12:06:40;38.10;24.70
80212;DHT22;70434;37.956;23.722;2023-07-13T12:09:14;38.10;25.40
80212;DHT22;70434;37.956;23.722;2023-07-13T12:11:42;38.10;26.00
80212;DHT22;70434;37.956;23.722;2023-07-13T12:14:15;38.10;27.10
80212;DHT22;70434;37.956;23.722;2023-07-13T12:16:42;38.10;27.20
80212;DHT22;70434;37.956;23.722;2023-07-13T12:19:18;38.00;26.80
80212;DHT22;70434;37.956;23.722;2023-07-13T12:21:46;38.10;25.60
80212;DHT22;70434;37.956;23.722;2023-07-13T12:24:16;38.10;24.90
80212;DHT22;70434;37.956;23.722;2023-07-13T12:26:42;38.10;25.00
80212;DHT22;70434;37.956;23.722;2023-07-13T12:29:15;38.10;25.20
80212;DHT22;70434;37.956;23.722;2023-07-13T12:31:44;38.20;25.10
80212;DHT22;70434;37.956;23.722;2023-07-13T12:34:18;38.30;25.20
80212;DHT22;70434;37.956;23.722;2023-07-13T12:37:00;38.30;25.20
80212;DHT22;70434;37.956;23.722;2023-07-13T12:44:56;38.50;24.60
80212;DHT22;70434;37.956;23.722;2023-07-13T12:47:23;38.50;24.10
80212;DHT22;70434;37.956;23.722;2023-07-13T12:49:55;38.60;23.50
80212;DHT22;70434;37.956;23.722;2023-07-13T12:52:34;38.60;22.40
80212;DHT22;70434;37.956;23.722;2023-07-13T12:55:14;38.70;22.50
80212;DHT22;70434;37.956;23.722;2023-07-13T12:57:49;38.70;22.30
80212;DHT22;70434;37.956;23.722;2023-07-13T13:00:26;38.70;22.00
80212;DHT22;70434;37.956;23.722;2023-07-13T13:02:55;38.70;21.70
80212;DHT22;70434;37.956;23.722;2023-07-13T13:05:22;38.80;21.90
80212;DHT22;70434;37.956;23.722;2023-07-13T13:07:51;38.80;22.00
80212;DHT22;70434;37.956;23.722;2023-07-13T13:10:16;38.90;22.20
80212;DHT22;70434;37.956;23.722;2023-07-13T13:12:42;38.90;22.30
80212;DHT22;70434;37.956;23.722;2023-07-13T13:15:09;39.00;21.70
80212;DHT22;70434;37.956;23.722;2023-07-13T13:17:37;39.10;21.40
80212;DHT22;70434;37.956;23.722;2023-07-13T13:20:15;39.20;21.70
80212;DHT22;70434;37.956;23.722;2023-07-13T13:22:41;39.10;21.60
80212;DHT22;70434;37.956;23.722;2023-07-13T13:25:10;39.10;21.30
80212;DHT22;70434;37.956;23.722;2023-07-13T13:27:36;39.00;21.50
80212;DHT22;70434;37.956;23.722;2023-07-13T13:30:03;39.00;21.90
80212;DHT22;70434;37.956;23.722;2023-07-13T13:32:29;39.00;22.00
80212;DHT22;70434;37.956;23.722;2023-07-13T13:34:54;39.20;22.00
80212;DHT22;70434;37.956;23.722;2023-07-13T13:37:23;39.30;21.50
80212;DHT22;70434;37.956;23.722;2023-07-13T13:39:49;39.30;21.60
80212;DHT22;70434;37.956;23.722;2023-07-13T13:42:16;39.40;21.60
80212;DHT22;70434;37.956;23.722;2023-07-13T13:44:42;39.30;21.90
80212;DHT22;70434;37.956;23.722;2023-07-13T13:47:23;39.20;21.90
80212;DHT22;70434;37.956;23.722;2023-07-13T13:49:53;39.20;21.90
80212;DHT22;70434;37.956;23.722;2023-07-13T13:52:19;39.20;22.00
80212;DHT22;70434;37.956;23.722;2023-07-13T13:54:45;39.20;22.10
80212;DHT22;70434;37.956;23.722;2023-07-13T13:57:10;39.30;22.10
80212;DHT22;70434;37.956;23.722;2023-07-13T13:59:38;39.30;22.50
80212;DHT22;70434;37.956;23.722;2023-07-13T14:02:29;39.30;22.50
80212;DHT22;70434;37.956;23.722;2023-07-13T14:05:01;39.30;23.10
80212;DHT22;70434;37.956;23.722;2023-07-13T14:07:28;39.20;22.80
80212;DHT22;70434;37.956;23.722;2023-07-13T14:09:59;39.20;22.90
80212;DHT22;70434;37.956;23.722;2023-07-13T14:12:27;39.30;23.10
80212;DHT22;70434;37.956;23.722;2023-07-13T14:14:55;39.20;23.40
80212;DHT22;70434;37.956;23.722;2023-07-13T14:17:25;39.20;23.30
80212;DHT22;70434;37.956;23.722;2023-07-13T14:19:52;39.30;23.00
80212;DHT22;70434;37.956;23.722;2023-07-13T14:22:24;39.40;22.80
80212;DHT22;70434;37.956;23.722;2023-07-13T14:24:54;39.40;23.30
80212;DHT22;70434;37.956;23.722;2023-07-13T14:27:21;39.50;23.00
80212;DHT22;70434;37.956;23.722;2023-07-13T14:29:47;39.50;22.70
80212;DHT22;70434;37.956;23.722;2023-07-13T14:32:13;39.70;23.10
80212;DHT22;70434;37.956;23.722;2023-07-13T14:34:39;39.80;23.00
80212;DHT22;70434;37.956;23.722;2023-07-13T14:37:08;39.80;23.10
80212;DHT22;70434;37.956;23.722;2023-07-13T14:39:37;39.80;23.00
80212;DHT22;70434;37.956;23.722;2023-07-13T14:42:04;39.80;22.90
80212;DHT22;70434;37.956;23.722;2023-07-13T14:44:30;39.80;23.10
80212;DHT22;70434;37.956;23.722;2023-07-13T14:47:03;39.50;23.50
80212;DHT22;70434;37.956;23.722;2023-07-13T14:49:32;39.50;23.90
80212;DHT22;70434;37.956;23.722;2023-07-13T14:52:01;39.40;23.90
80212;DHT22;70434;37.956;23.722;2023-07-13T14:54:29;39.30;24.30
80212;DHT22;70434;37.956;23.722;2023-07-13T14:56:58;39.30;24.30
80212;DHT22;70434;37.956;23.722;2023-07-13T14:59:23;39.40;24.30
80212;DHT22;70434;37.956;23.722;2023-07-13T15:01:50;39.40;24.20
80212;DHT22;70434;37.956;23.722;2023-07-13T15:04:16;39.40;24.20
80212;DHT22;70434;37.956;23.722;2023-07-13T15:06:54;39.40;23.80
80212;DHT22;70434;37.956;23.722;2023-07-13T15:09:21;39.60;24.10
80212;DHT22;70434;37.956;23.722;2023-07-13T15:11:47;39.70;23.50
80212;DHT22;70434;37.956;23.722;2023-07-13T15:14:12;39.60;23.40
80212;DHT22;70434;37.956;23.722;2023-07-13T15:16:38;39.70;24.40
80212;DHT22;70434;37.956;23.722;2023-07-13T15:19:04;39.80;23.70
80212;DHT22;70434;37.956;23.722;2023-07-13T15:21:30;39.80;23.40
80212;DHT22;70434;37.956;23.722;2023-07-13T15:24:00;40.00;23.40
80212;DHT22;70434;37.956;23.722;2023-07-13T15:26:26;40.00;23.40
80212;DHT22;70434;37.956;23.722;2023-07-13T15:28:52;40.10;23.00
80212;DHT22;70434;37.956;23.722;2023-07-13T15:31:21;40.10;23.10
80212;DHT22;70434;37.956;23.722;2023-07-13T15:33:49;40.10;22.90
80212;DHT22;70434;37.956;23.722;2023-07-13T15:36:19;40.10;23.30
80212;DHT22;70434;37.956;23.722;2023-07-13T15:51:45;40.10;23.10
80212;DHT22;70434;37.956;23.722;2023-07-13T16:33:35;39.50;23.60
80212;DHT22;70434;37.956;23.722;2023-07-13T16:36:01;39.40;23.20
80212;DHT22;70434;37.956;23.722;2023-07-13T16:38:28;39.10;23.40
80212;DHT22;70434;37.956;23.722;2023-07-13T16:40:56;39.00;23.80
80212;DHT22;70434;37.956;23.722;2023-07-13T16:43:23;38.90;24.20
80212;DHT22;70434;37.956;23.722;2023-07-13T16:45:49;38.70;24.50
80212;DHT22;70434;37.956;23.722;2023-07-13T16:48:21;38.50;24.70
80212;DHT22;70434;37.956;23.722;2023-07-13T16:50:55;38.50;25.30
80212;DHT22;70434;37.956;23.722;2023-07-13T16:53:26;38.20;25.90
80212;DHT22;70434;37.956;23.722;2023-07-13T16:55:53;38.10;26.10
80212;DHT22;70434;37.956;23.722;2023-07-13T16:58:22;38.00;26.60
80212;DHT22;70434;37.956;23.722;2023-07-13T17:00:51;37.90;26.80
80212;DHT22;70434;37.956;23.722;2023-07-13T17:03:18;37.60;27.60